Time;durP1;ratioP1;P1;durP2;ratioP2;P2;SDS_P1;SDS_P2;PMS_P1;PMS_P2;Temp;Humidity;BMP_temperature;BMP_pressure;BME280_temperature;BME280_humidity;BME280_pressure;Samples;Min_cycle;Max_cycle;Signal;HPM_P1;HPM_P2
2022/11/20 00:01:18;;;;;;;28.70;7.70;;;1.70;99.90;;;;;;5070333;28;20436;-60
2022/11/20 00:03:43;;;;;;;26.97;5.97;;;1.70;99.90;;;;;;5069154;28;20505;-59
2022/11/20 00:06:12;;;;;;;18.37;5.17;;;1.70;99.90;;;;;;5073791;28;20479;-59
2022/11/20 00:08:38;;;;;;;11.17;5.73;;;1.70;99.90;;;;;;5068872;28;20310;-59
2022/11/20 00:11:09;;;;;;;25.93;6.13;;;1.70;99.90;;;;;;5065943;28;20819;-60
2022/11/20 00:13:35;;;;;;;89.83;7.30;;;1.70;99.90;;;;;;5072325;28;20425;-60
2022/11/20 00:16:02;;;;;;;34.63;7.20;;;1.70;99.90;;;;;;5050902;28;21022;-60
2022/11/20 00:18:28;;;;;;;22.23;6.30;;;1.70;99.90;;;;;;5065366;28;20252;-59
2022/11/20 00:20:59;;;;;;;143.90;11.70;;;1.70;99.90;;;;;;5069570;28;20430;-57
2022/11/20 00:23:25;;;;;;;34.50;6.67;;;1.70;99.90;;;;;;5068353;28;20390;-59
2022/11/20 00:25:50;;;;;;;57.97;7.50;;;1.70;99.90;;;;;;5069310;28;20456;-58
2022/11/20 00:28:16;;;;;;;22.90;5.43;;;1.70;99.90;;;;;;5068073;28;20222;-58
2022/11/20 00:30:42;;;;;;;29.67;7.00;;;1.70;99.90;;;;;;5083808;28;20233;-60
2022/11/20 00:33:07;;;;;;;21.80;5.63;;;1.70;99.90;;;;;;5067377;28;20168;-60
2022/11/20 00:35:33;;;;;;;65.23;7.90;;;1.70;99.90;;;;;;5078133;28;20210;-58
2022/11/20 00:37:58;;;;;;;99.23;8.50;;;1.60;99.90;;;;;;5067862;28;20203;-58
2022/11/20 00:40:24;;;;;;;12.40;5.03;;;1.60;99.90;;;;;;5072381;28;20303;-60
2022/11/20 00:42:50;;;;;;;145.20;8.73;;;1.60;99.90;;;;;;5075693;28;20195;-58
2022/11/20 00:45:15;;;;;;;25.10;5.33;;;1.60;99.90;;;;;;5080217;28;20246;-60
2022/11/20 00:47:41;;;;;;;17.60;5.00;;;1.50;99.90;;;;;;5070434;28;20228;-58
2022/11/20 00:50:07;;;;;;;18.87;5.07;;;1.50;99.90;;;;;;5083964;28;20170;-59
2022/11/20 00:52:33;;;;;;;12.60;5.30;;;1.50;99.90;;;;;;5078531;28;20181;-59
2022/11/20 00:54:58;;;;;;;9.30;4.70;;;1.50;99.90;;;;;;5080397;28;20422;-58
2022/11/20 00:57:24;;;;;;;4.77;3.80;;;1.40;99.90;;;;;;5064800;28;20191;-59
2022/11/20 00:59:50;;;;;;;5.47;4.20;;;1.40;99.90;;;;;;5054845;28;20286;-58
2022/11/20 01:02:16;;;;;;;7.10;4.77;;;1.40;99.90;;;;;;5068713;28;20270;-58
2022/11/20 01:04:42;;;;;;;58.67;6.20;;;1.30;99.90;;;;;;5080492;28;20227;-60
2022/11/20 01:07:07;;;;;;;19.17;4.63;;;1.30;99.90;;;;;;5070563;28;21157;-58
2022/11/20 01:09:33;;;;;;;37.63;5.87;;;1.30;99.90;;;;;;5060407;28;20455;-61
2022/11/20 01:12:00;;;;;;;58.33;7.27;;;1.30;99.90;;;;;;5074250;28;20178;-58
2022/11/20 01:14:25;;;;;;;75.23;8.93;;;1.20;99.90;;;;;;5066841;28;20204;-59
2022/11/20 01:16:52;;;;;;;129.43;9.30;;;1.20;99.90;;;;;;5066945;28;20441;-61
2022/11/20 01:19:20;;;;;;;23.93;5.70;;;1.20;99.90;;;;;;5070076;28;20200;-59
2022/11/20 01:21:49;;;;;;;30.83;5.50;;;1.20;99.90;;;;;;5073801;28;20435;-59
2022/11/20 01:24:17;;;;;;;56.50;6.63;;;1.20;99.90;;;;;;5077693;28;20426;-57
2022/11/20 01:26:44;;;;;;;44.37;6.30;;;1.20;99.90;;;;;;5056325;28;20439;-58
2022/11/20 01:29:16;;;;;;;64.80;7.97;;;1.30;99.90;;;;;;5067394;28;20434;-58
2022/11/20 01:31:42;;;;;;;53.20;6.90;;;1.30;99.90;;;;;;5067815;28;20406;-58
2022/11/20 01:34:18;;;;;;;93.37;8.07;;;1.30;99.90;;;;;;5067669;28;20421;-60
2022/11/20 01:36:44;;;;;;;16.60;6.20;;;1.30;99.90;;;;;;5057013;28;20449;-58
2022/11/20 01:39:24;;;;;;;9.87;5.77;;;1.30;99.90;;;;;;5077628;28;20448;-56
2022/11/20 01:44:57;;;;;;;10.67;6.10;;;1.40;99.90;;;;;;5082718;28;20480;-59
2022/11/20 01:47:37;;;;;;;11.67;6.43;;;1.40;99.90;;;;;;5064869;28;20445;-63
2022/11/20 01:50:14;;;;;;;8.13;5.57;;;1.50;99.90;;;;;;5072758;28;20440;-59
2022/11/20 01:52:45;;;;;;;8.40;5.07;;;1.50;99.90;;;;;;5058770;28;20401;-57
2022/11/20 01:55:20;;;;;;;8.33;5.40;;;1.50;99.90;;;;;;5066256;28;20420;-58
2022/11/20 01:57:48;;;;;;;6.47;4.80;;;1.60;99.90;;;;;;5073285;28;20454;-57
2022/11/20 02:00:17;;;;;;;6.70;5.07;;;1.60;99.90;;;;;;5064967;28;20431;-60
2022/11/20 02:02:46;;;;;;;5.30;4.37;;;1.70;99.90;;;;;;5063745;28;20408;-59
2022/11/20 02:05:22;;;;;;;5.53;4.10;;;1.80;99.90;;;;;;5056032;28;20398;-58
2022/11/20 02:07:48;;;;;;;5.53;4.50;;;1.80;99.90;;;;;;5053624;28;20845;-59
2022/11/20 02:10:14;;;;;;;7.27;4.30;;;1.80;99.90;;;;;;5064044;28;20425;-58
2022/11/20 02:15:24;;;;;;;5.70;3.90;;;1.90;99.90;;;;;;5062130;28;20433;-57
2022/11/20 02:17:50;;;;;;;5.87;3.97;;;1.90;99.90;;;;;;5059815;28;20436;-58
2022/11/20 02:20:16;;;;;;;6.40;4.20;;;1.90;99.90;;;;;;5068313;28;20249;-60
2022/11/20 02:22:53;;;;;;;6.40;4.50;;;1.90;99.90;;;;;;5067988;28;20169;-59
2022/11/20 02:25:19;;;;;;;6.10;4.53;;;1.90;99.90;;;;;;5067076;28;20158;-58
2022/11/20 02:27:45;;;;;;;6.43;4.73;;;1.90;99.90;;;;;;5071218;28;20449;-58
2022/11/20 02:30:11;;;;;;;8.67;5.63;;;1.90;99.90;;;;;;5068466;28;20455;-58
2022/11/20 02:32:38;;;;;;;4.97;4.47;;;1.90;99.90;;;;;;5065683;28;20201;-61
2022/11/20 02:35:30;;;;;;;6.97;4.77;;;1.80;99.90;;;;;;5060349;28;20419;-56
2022/11/20 02:37:59;;;;;;;6.60;4.93;;;1.80;99.90;;;;;;5066322;28;20409;-59
2022/11/20 02:40:25;;;;;;;6.40;4.33;;;1.90;99.90;;;;;;5069597;28;20477;-60
2022/11/20 02:42:55;;;;;;;6.10;4.57;;;1.90;99.90;;;;;;5048456;28;20474;-58
2022/11/20 02:45:21;;;;;;;7.43;3.93;;;2.00;99.90;;;;;;5053127;28;20418;-59
2022/11/20 02:47:46;;;;;;;6.30;4.30;;;2.00;99.90;;;;;;5051906;28;20464;-58
2022/11/20 02:50:12;;;;;;;6.83;4.30;;;2.00;99.90;;;;;;5070158;28;20404;-57
2022/11/20 02:52:38;;;;;;;5.03;4.20;;;2.00;99.90;;;;;;5077817;28;20179;-58
2022/11/20 02:55:04;;;;;;;5.80;4.60;;;2.00;99.90;;;;;;5075053;28;20655;-56
2022/11/20 02:57:30;;;;;;;8.93;4.83;;;2.00;99.90;;;;;;5067188;28;20764;-58
2022/11/20 02:59:55;;;;;;;6.40;4.33;;;2.00;99.90;;;;;;5063656;28;20457;-60
2022/11/20 03:02:21;;;;;;;5.63;4.20;;;2.10;99.90;;;;;;5064345;28;20189;-57
2022/11/20 03:04:47;;;;;;;5.93;4.47;;;2.10;99.90;;;;;;5070166;28;20163;-57
2022/11/20 03:07:12;;;;;;;6.10;4.33;;;2.10;99.90;;;;;;5074840;28;20289;-55
2022/11/20 03:09:38;;;;;;;8.70;4.60;;;2.00;99.90;;;;;;5047880;28;20170;-57
2022/11/20 03:12:04;;;;;;;6.03;4.77;;;2.00;99.90;;;;;;5068698;28;20431;-57
2022/11/20 03:14:30;;;;;;;9.33;4.73;;;2.00;99.90;;;;;;5061474;28;20216;-58
2022/11/20 03:16:56;;;;;;;8.33;4.60;;;2.00;99.90;;;;;;5063837;28;20888;-58
2022/11/20 03:19:21;;;;;;;7.43;5.00;;;2.00;99.90;;;;;;5068243;28;20203;-57
2022/11/20 03:21:47;;;;;;;7.27;4.67;;;2.00;99.90;;;;;;5071181;28;20189;-57
2022/11/20 03:24:13;;;;;;;6.63;4.77;;;2.00;99.90;;;;;;5088620;28;20167;-57
2022/11/20 03:26:39;;;;;;;7.40;5.10;;;2.00;99.90;;;;;;5070420;28;20192;-57
2022/11/20 03:29:05;;;;;;;5.57;4.13;;;2.00;99.90;;;;;;5063902;28;20447;-58
2022/11/20 03:31:36;;;;;;;8.07;5.13;;;2.00;99.90;;;;;;5089512;28;20420;-60
2022/11/20 03:34:03;;;;;;;6.43;4.50;;;2.00;99.90;;;;;;5080619;28;21302;-57
2022/11/20 03:36:29;;;;;;;8.13;4.33;;;2.00;99.90;;;;;;5069229;28;20409;-58
2022/11/20 03:38:56;;;;;;;6.87;4.67;;;2.00;99.90;;;;;;5073556;28;20436;-59
2022/11/20 03:41:27;;;;;;;4.87;3.60;;;2.00;99.90;;;;;;5050053;28;20480;-63
2022/11/20 03:43:55;;;;;;;6.10;4.50;;;2.00;99.90;;;;;;5075583;28;20483;-58
2022/11/20 03:46:21;;;;;;;6.10;4.77;;;2.00;99.90;;;;;;5088462;28;20437;-57
2022/11/20 03:48:47;;;;;;;5.80;4.97;;;2.00;99.90;;;;;;5084554;28;20432;-57
2022/11/20 03:51:19;;;;;;;6.50;4.80;;;2.00;99.90;;;;;;5060417;28;20711;-57
2022/11/20 03:53:46;;;;;;;7.77;5.20;;;2.10;99.90;;;;;;5068040;28;20769;-57
2022/11/20 03:56:13;;;;;;;5.40;4.60;;;2.10;99.90;;;;;;5072501;28;20463;-57
2022/11/20 03:58:40;;;;;;;6.27;4.67;;;2.10;99.90;;;;;;5081541;28;20449;-55
2022/11/20 04:01:11;;;;;;;9.00;3.80;;;2.10;99.90;;;;;;5064030;28;20439;-57
2022/11/20 04:03:38;;;;;;;8.37;5.23;;;2.10;99.90;;;;;;5073186;28;20409;-59
2022/11/20 04:06:07;;;;;;;5.30;4.00;;;2.10;99.90;;;;;;5075616;28;20405;-56
2022/11/20 04:08:33;;;;;;;7.57;5.50;;;2.10;99.90;;;;;;5064513;28;20493;-57
2022/11/20 04:11:23;;;;;;;8.10;5.30;;;2.00;99.90;;;;;;5069845;28;20446;-56
2022/11/20 04:13:52;;;;;;;7.73;5.03;;;2.00;99.90;;;;;;5069137;28;20409;-57
2022/11/20 04:16:18;;;;;;;7.20;5.20;;;2.00;99.90;;;;;;5070048;28;20445;-58
2022/11/20 04:18:44;;;;;;;8.60;4.83;;;2.00;99.90;;;;;;5070158;28;20444;-59
2022/11/20 04:21:10;;;;;;;6.37;4.73;;;1.90;99.90;;;;;;5080577;28;20443;-57
2022/11/20 04:23:36;;;;;;;5.47;4.43;;;1.90;99.90;;;;;;5063881;28;20166;-58
2022/11/20 04:26:10;;;;;;;7.47;5.23;;;1.90;99.90;;;;;;5074485;28;20419;-57
2022/11/20 04:28:36;;;;;;;7.03;4.80;;;1.90;99.90;;;;;;5065678;28;20437;-57
2022/11/20 04:31:07;;;;;;;7.90;4.33;;;1.90;99.90;;;;;;5068085;28;20421;-62
2022/11/20 04:33:33;;;;;;;5.70;4.23;;;1.90;99.90;;;;;;5068186;28;20448;-58
2022/11/20 04:36:10;;;;;;;5.87;4.57;;;1.90;99.90;;;;;;5069969;28;20436;-57
2022/11/20 04:38:35;;;;;;;6.93;4.93;;;2.00;99.90;;;;;;5077297;28;20456;-58
2022/11/20 04:41:06;;;;;;;9.20;4.53;;;2.00;99.90;;;;;;5068611;28;20430;-58
2022/11/20 04:43:32;;;;;;;6.97;5.03;;;2.00;99.90;;;;;;5067000;28;20181;-56
2022/11/20 04:45:59;;;;;;;6.17;4.73;;;2.00;99.90;;;;;;5074957;28;20496;-58
2022/11/20 04:48:26;;;;;;;5.70;4.20;;;2.00;99.90;;;;;;5066297;28;20430;-57
2022/11/20 04:50:52;;;;;;;7.43;5.23;;;2.10;99.90;;;;;;5077074;28;20412;-57
2022/11/20 04:53:18;;;;;;;7.30;5.17;;;2.00;99.90;;;;;;5066866;28;20497;-64
2022/11/20 04:55:44;;;;;;;7.30;4.97;;;2.10;99.90;;;;;;5072249;28;20421;-57
2022/11/20 04:58:09;;;;;;;6.67;5.10;;;2.00;99.90;;;;;;5068484;28;20584;-58
2022/11/20 05:00:35;;;;;;;7.83;4.80;;;2.10;99.90;;;;;;5083940;28;20407;-60
2022/11/20 05:03:01;;;;;;;10.23;5.03;;;2.10;99.90;;;;;;5083483;28;20181;-58
2022/11/20 05:05:27;;;;;;;9.13;5.27;;;2.10;99.90;;;;;;5089854;28;20443;-59
2022/11/20 05:07:52;;;;;;;8.03;5.13;;;2.20;99.90;;;;;;5048235;28;20249;-56
2022/11/20 05:10:18;;;;;;;6.70;5.13;;;2.20;99.90;;;;;;5062400;28;20177;-55
2022/11/20 05:12:43;;;;;;;9.57;5.60;;;2.20;99.90;;;;;;5076743;28;20218;-56
2022/11/20 05:15:09;;;;;;;5.27;4.50;;;2.20;99.90;;;;;;5073190;28;20232;-55
2022/11/20 05:17:35;;;;;;;6.20;4.77;;;2.30;99.90;;;;;;5065178;28;20198;-56
2022/11/20 05:20:01;;;;;;;10.80;5.80;;;2.30;99.90;;;;;;5065049;28;20210;-56
2022/11/20 05:22:26;;;;;;;7.47;5.73;;;2.30;99.90;;;;;;5060810;28;20235;-56
2022/11/20 05:24:52;;;;;;;7.17;4.90;;;2.30;99.90;;;;;;5059115;28;20174;-55
2022/11/20 05:27:18;;;;;;;7.30;4.90;;;2.30;99.90;;;;;;5067027;28;20194;-57
2022/11/20 05:29:43;;;;;;;6.93;5.00;;;2.30;99.90;;;;;;5058660;28;20182;-56
2022/11/20 05:32:09;;;;;;;6.73;4.53;;;2.30;99.90;;;;;;5077149;28;20191;-58
2022/11/20 05:34:35;;;;;;;8.60;5.23;;;2.30;99.90;;;;;;5063896;28;20170;-58
2022/11/20 05:37:01;;;;;;;8.57;5.50;;;2.30;99.90;;;;;;5062561;28;20457;-58
2022/11/20 05:39:27;;;;;;;7.60;4.80;;;2.30;99.90;;;;;;5068460;28;20470;-56
2022/11/20 05:42:29;;;;;;;9.67;4.93;;;2.30;99.90;;;;;;5085162;28;20442;-56
2022/11/20 05:44:39;;;;;;;8.07;5.23;;;2.30;99.90;;;;;;5088432;28;20245;-56
2022/11/20 05:47:05;;;;;;;6.73;5.67;;;2.40;99.90;;;;;;5070275;28;20452;-58
2022/11/20 05:49:31;;;;;;;7.23;4.60;;;2.30;99.90;;;;;;5082032;28;20413;-56
2022/11/20 05:51:56;;;;;;;8.30;5.30;;;2.30;99.90;;;;;;5070661;28;20451;-57
2022/11/20 05:54:22;;;;;;;8.70;5.97;;;2.30;99.90;;;;;;5068804;28;20167;-55
2022/11/20 05:56:48;;;;;;;6.40;4.80;;;2.30;99.90;;;;;;5076334;28;20194;-56
2022/11/20 05:59:13;;;;;;;7.57;5.30;;;2.30;99.90;;;;;;5072509;28;20197;-60
2022/11/20 06:01:39;;;;;;;8.57;5.23;;;2.20;99.90;;;;;;5062175;28;20240;-61
2022/11/20 06:04:04;;;;;;;8.17;4.60;;;2.20;99.90;;;;;;5076821;28;20173;-57
2022/11/20 06:06:30;;;;;;;11.33;5.30;;;2.20;99.90;;;;;;5068558;28;20248;-57
2022/11/20 06:08:56;;;;;;;6.67;4.87;;;2.20;99.90;;;;;;5068150;28;20228;-57
2022/11/20 06:11:22;;;;;;;12.27;6.80;;;2.20;99.90;;;;;;5086429;28;20189;-56
2022/11/20 06:13:48;;;;;;;7.20;5.27;;;2.20;99.90;;;;;;5074555;28;20413;-60
2022/11/20 06:16:16;;;;;;;5.33;4.57;;;2.10;99.90;;;;;;5064171;28;20221;-57
2022/11/20 06:18:42;;;;;;;5.90;4.80;;;2.10;99.90;;;;;;5062748;28;20498;-57
2022/11/20 06:21:09;;;;;;;8.57;6.10;;;2.10;99.90;;;;;;5072179;28;20516;-57
2022/11/20 06:23:35;;;;;;;7.30;4.80;;;2.10;99.90;;;;;;5059856;28;20450;-56
2022/11/20 06:26:04;;;;;;;6.70;4.70;;;2.10;99.90;;;;;;5062984;28;20431;-57
2022/11/20 06:28:29;;;;;;;5.30;4.30;;;2.10;99.90;;;;;;5078122;28;20444;-57
2022/11/20 06:30:55;;;;;;;7.53;5.00;;;2.20;99.90;;;;;;5065661;28;20427;-56
2022/11/20 06:33:21;;;;;;;8.13;5.00;;;2.20;99.90;;;;;;5072049;28;20179;-58
2022/11/20 06:35:46;;;;;;;7.50;5.10;;;2.20;99.90;;;;;;5061714;28;20182;-57
2022/11/20 06:38:12;;;;;;;7.97;5.23;;;2.20;99.90;;;;;;5062583;28;20218;-56
2022/11/20 06:40:40;;;;;;;9.93;5.03;;;2.30;99.90;;;;;;5067177;28;20650;-55
2022/11/20 06:43:06;;;;;;;9.00;5.40;;;2.30;99.90;;;;;;5064987;28;20276;-56
2022/11/20 06:45:31;;;;;;;7.30;4.77;;;2.30;99.90;;;;;;5082332;28;20412;-56
2022/11/20 06:47:58;;;;;;;7.50;5.07;;;2.30;99.90;;;;;;5070367;28;20183;-57
2022/11/20 06:50:24;;;;;;;9.33;5.77;;;2.40;99.90;;;;;;5059310;28;20251;-61
2022/11/20 06:52:49;;;;;;;6.27;4.70;;;2.40;99.90;;;;;;5065548;28;20420;-57
2022/11/20 06:55:15;;;;;;;5.93;4.10;;;2.40;99.90;;;;;;5056300;28;20470;-57
2022/11/20 06:57:41;;;;;;;9.90;4.40;;;2.50;99.90;;;;;;5066902;28;20201;-64
2022/11/20 07:00:07;;;;;;;13.10;8.90;;;2.50;99.90;;;;;;5074264;28;20194;-60
2022/11/20 07:02:33;;;;;;;12.20;7.77;;;2.60;99.90;;;;;;5077474;28;20187;-56
2022/11/20 07:04:58;;;;;;;12.60;7.20;;;2.60;99.90;;;;;;5076638;28;20423;-56
2022/11/20 07:07:24;;;;;;;10.97;5.70;;;2.60;99.90;;;;;;5067793;28;20206;-59
2022/11/20 07:09:49;;;;;;;8.60;5.70;;;2.70;99.90;;;;;;5056191;28;20189;-56
2022/11/20 07:12:15;;;;;;;8.23;5.43;;;2.80;99.90;;;;;;5077274;28;20175;-56
2022/11/20 07:14:41;;;;;;;7.10;5.07;;;2.80;99.90;;;;;;5065936;28;20192;-57
2022/11/20 07:17:06;;;;;;;6.67;5.00;;;2.90;99.90;;;;;;5070230;28;20221;-57
2022/11/20 07:19:32;;;;;;;7.60;5.20;;;2.90;99.90;;;;;;5065380;28;20194;-57
2022/11/20 07:21:57;;;;;;;5.30;4.53;;;3.00;99.90;;;;;;5048521;28;20228;-55
2022/11/20 07:24:23;;;;;;;7.37;4.93;;;3.00;99.90;;;;;;5055896;28;20266;-62
2022/11/20 07:26:49;;;;;;;6.30;4.80;;;3.10;99.90;;;;;;5059768;28;20261;-54
2022/11/20 07:29:16;;;;;;;6.70;4.30;;;3.20;99.90;;;;;;5044504;28;20322;-56
2022/11/20 07:31:42;;;;;;;7.10;4.90;;;3.20;99.90;;;;;;5071502;28;20244;-56
2022/11/20 07:34:08;;;;;;;6.30;5.40;;;3.30;99.90;;;;;;5047530;28;20433;-55
2022/11/20 07:36:34;;;;;;;7.23;5.40;;;3.40;99.90;;;;;;5063080;28;20425;-54
2022/11/20 07:38:59;;;;;;;7.43;5.27;;;3.40;99.90;;;;;;5053025;28;21263;-54
2022/11/20 07:41:25;;;;;;;6.20;3.50;;;3.40;99.90;;;;;;5057194;28;20171;-54
2022/11/20 07:43:51;;;;;;;4.93;3.90;;;3.40;99.90;;;;;;5067587;28;20252;-55
2022/11/20 07:46:16;;;;;;;5.33;4.50;;;3.50;99.90;;;;;;5063150;28;20185;-55
2022/11/20 07:48:42;;;;;;;5.27;4.50;;;3.50;99.90;;;;;;5052566;28;20199;-54
2022/11/20 07:51:08;;;;;;;5.17;3.80;;;3.50;99.90;;;;;;5042266;28;20257;-54
2022/11/20 07:53:33;;;;;;;7.33;3.60;;;3.60;99.90;;;;;;5065669;28;20183;-63
2022/11/20 07:56:01;;;;;;;4.70;3.30;;;3.60;99.90;;;;;;5068502;28;20175;-55
2022/11/20 07:58:28;;;;;;;5.63;3.60;;;3.60;99.90;;;;;;5068140;28;20214;-56
2022/11/20 08:00:53;;;;;;;6.53;3.53;;;3.70;99.90;;;;;;5061891;28;20773;-55
2022/11/20 08:03:19;;;;;;;4.97;3.27;;;3.70;99.90;;;;;;5046493;28;20440;-55
2022/11/20 08:05:45;;;;;;;4.43;3.70;;;3.80;99.90;;;;;;5049819;28;20190;-54
2022/11/20 08:08:10;;;;;;;4.10;3.67;;;3.90;99.90;;;;;;5060064;28;20225;-56
2022/11/20 08:10:36;;;;;;;4.10;3.70;;;4.00;99.90;;;;;;5070122;28;20245;-56
2022/11/20 08:15:50;;;;;;;3.07;2.70;;;4.10;99.90;;;;;;5061775;28;20294;-55
2022/11/20 08:18:17;;;;;;;3.30;2.60;;;4.10;99.90;;;;;;5065854;28;20509;-56
2022/11/20 08:20:43;;;;;;;3.50;2.50;;;4.10;99.90;;;;;;5057603;28;20520;-58
2022/11/20 08:23:08;;;;;;;2.97;2.67;;;4.20;99.90;;;;;;5060728;28;20445;-58
2022/11/20 08:25:36;;;;;;;3.23;2.80;;;4.20;99.90;;;;;;5059230;28;20179;-59
2022/11/20 08:28:04;;;;;;;4.20;2.80;;;4.30;99.90;;;;;;5063280;28;20203;-54
2022/11/20 08:30:30;;;;;;;3.13;2.83;;;4.30;99.90;;;;;;5056738;28;20986;-54
2022/11/20 08:33:05;;;;;;;3.20;2.90;;;4.30;99.90;;;;;;5034783;28;20437;-54
2022/11/20 08:35:38;;;;;;;5.63;3.17;;;4.40;99.90;;;;;;5058170;28;20493;-57
2022/11/20 08:38:05;;;;;;;5.97;3.20;;;4.40;99.90;;;;;;5059485;28;20471;-54
2022/11/20 08:40:31;;;;;;;3.73;3.03;;;4.40;99.90;;;;;;5046661;28;20425;-54
2022/11/20 08:42:57;;;;;;;3.53;2.70;;;4.50;99.90;;;;;;5046991;28;20954;-55
2022/11/20 08:45:22;;;;;;;3.70;3.17;;;4.50;99.90;;;;;;5047782;28;20996;-54
2022/11/20 08:47:48;;;;;;;4.23;3.30;;;4.50;99.90;;;;;;5049514;28;20202;-55
2022/11/20 08:50:15;;;;;;;4.70;3.33;;;4.50;99.90;;;;;;5049424;28;20511;-54
2022/11/20 08:52:41;;;;;;;3.67;3.27;;;4.60;99.90;;;;;;5047823;28;20536;-55
2022/11/20 08:55:08;;;;;;;4.47;3.70;;;4.60;99.90;;;;;;5046840;28;20455;-53
2022/11/20 08:57:35;;;;;;;5.20;3.50;;;4.70;99.90;;;;;;5035323;28;20530;-54
2022/11/20 09:00:02;;;;;;;10.47;3.83;;;4.70;99.90;;;;;;5053513;28;20492;-53
2022/11/20 09:02:28;;;;;;;4.67;3.70;;;4.80;99.90;;;;;;5058417;28;20444;-55
2022/11/20 09:04:53;;;;;;;3.27;2.97;;;4.90;99.90;;;;;;5049731;28;21151;-53
2022/11/20 09:07:19;;;;;;;2.80;2.50;;;5.00;99.90;;;;;;5053708;28;20542;-53
2022/11/20 09:09:45;;;;;;;3.60;3.13;;;5.00;99.90;;;;;;5053083;28;20209;-53
2022/11/20 09:12:10;;;;;;;4.00;2.70;;;5.10;99.90;;;;;;5032392;28;20434;-54
2022/11/20 09:14:36;;;;;;;5.07;2.77;;;5.30;99.90;;;;;;5035242;28;20287;-50
2022/11/20 09:17:02;;;;;;;3.93;2.87;;;5.40;99.90;;;;;;5050007;28;20290;-54
2022/11/20 09:19:27;;;;;;;3.43;2.87;;;5.40;99.90;;;;;;5054518;28;20205;-53
2022/11/20 09:21:53;;;;;;;2.57;2.37;;;5.50;99.90;;;;;;5062219;28;20178;-55
2022/11/20 09:24:20;;;;;;;2.70;2.50;;;5.50;99.90;;;;;;5052591;28;20581;-56
2022/11/20 09:26:46;;;;;;;2.30;2.10;;;5.50;99.90;;;;;;5057024;28;20457;-55
2022/11/20 09:29:12;;;;;;;2.70;2.50;;;5.50;99.90;;;;;;5055811;28;20433;-54
2022/11/20 09:31:37;;;;;;;4.10;2.63;;;5.50;99.90;;;;;;5054147;28;20210;-54
2022/11/20 09:34:03;;;;;;;2.87;2.33;;;5.50;99.90;;;;;;5052079;28;20262;-55
2022/11/20 09:36:28;;;;;;;3.80;2.60;;;5.60;99.90;;;;;;5048607;28;20182;-56
2022/11/20 09:38:56;;;;;;;2.30;2.10;;;5.60;99.90;;;;;;5029493;28;20298;-54
2022/11/20 09:41:49;;;;;;;2.60;2.30;;;5.60;99.90;;;;;;5027847;28;20179;-56
2022/11/20 09:44:34;;;;;;;2.40;2.20;;;5.60;99.90;;;;;;5047508;28;20767;-54
2022/11/20 09:47:31;;;;;;;3.50;2.43;;;5.60;99.90;;;;;;5031229;28;20465;-54
2022/11/20 09:50:21;;;;;;;3.27;2.27;;;5.60;99.90;;;;;;5036364;28;20950;-54
2022/11/20 09:53:13;;;;;;;6.13;3.57;;;5.60;99.90;;;;;;5055089;28;20437;-57
2022/11/20 09:55:39;;;;;;;2.77;2.57;;;5.60;99.90;;;;;;5052298;28;20437;-53
2022/11/20 09:58:24;;;;;;;4.23;2.10;;;5.60;99.90;;;;;;5052585;28;20441;-53
2022/11/20 10:00:51;;;;;;;3.83;2.97;;;5.60;99.90;;;;;;5054119;28;20424;-52
2022/11/20 10:03:44;;;;;;;4.43;2.80;;;5.50;99.90;;;;;;5057342;28;20854;-52
2022/11/20 10:06:15;;;;;;;3.30;2.30;;;5.50;99.90;;;;;;5030012;28;20438;-54
2022/11/20 10:08:58;;;;;;;3.10;2.27;;;5.50;99.90;;;;;;5053649;28;20457;-54
2022/11/20 10:11:42;;;;;;;2.40;1.90;;;5.50;99.90;;;;;;5050085;28;20788;-54
2022/11/20 10:14:10;;;;;;;2.13;1.93;;;5.50;99.90;;;;;;5045406;28;20482;-54
2022/11/20 10:16:55;;;;;;;3.27;2.47;;;5.50;99.90;;;;;;5044157;28;20548;-54
2022/11/20 10:19:46;;;;;;;2.27;1.80;;;5.50;99.90;;;;;;5042550;28;20536;-54
2022/11/20 10:22:20;;;;;;;3.80;1.90;;;5.50;99.90;;;;;;5046772;28;20429;-54
2022/11/20 10:25:15;;;;;;;3.30;1.90;;;5.60;99.90;;;;;;5053296;28;20432;-54
2022/11/20 10:27:58;;;;;;;2.07;1.90;;;5.60;99.90;;;;;;5049822;28;20449;-54
2022/11/20 10:30:25;;;;;;;1.93;1.70;;;5.60;99.90;;;;;;5055110;28;20436;-54
2022/11/20 10:33:03;;;;;;;2.70;1.83;;;5.60;99.90;;;;;;5044872;28;20898;-53
2022/11/20 10:35:58;;;;;;;1.83;1.73;;;5.60;99.90;;;;;;5049183;28;20465;-54
2022/11/20 10:38:38;;;;;;;2.23;1.70;;;5.70;99.90;;;;;;5041138;28;20463;-54
2022/11/20 10:41:24;;;;;;;1.90;1.70;;;5.70;99.90;;;;;;5046384;28;20456;-54
2022/11/20 10:43:58;;;;;;;1.97;1.70;;;5.70;99.90;;;;;;5050019;28;20440;-53
2022/11/20 10:46:25;;;;;;;3.40;2.30;;;5.80;99.90;;;;;;5047241;28;20421;-53
2022/11/20 10:48:51;;;;;;;5.00;1.90;;;5.80;99.90;;;;;;5043739;28;20545;-54
2022/11/20 10:51:32;;;;;;;1.60;1.37;;;5.80;99.90;;;;;;5047857;28;20447;-53
2022/11/20 10:53:57;;;;;;;4.20;1.83;;;5.80;99.90;;;;;;5048625;28;20802;-53
2022/11/20 10:56:48;;;;;;;3.83;1.57;;;5.80;99.90;;;;;;5051885;28;20460;-54
2022/11/20 10:59:46;;;;;;;1.37;1.27;;;5.80;99.90;;;;;;5045005;28;20202;-55
2022/11/20 11:02:21;;;;;;;1.63;1.53;;;5.80;99.90;;;;;;5049361;28;20440;-54
2022/11/20 11:04:51;;;;;;;4.03;1.87;;;5.80;99.90;;;;;;5048323;28;20491;-55
2022/11/20 11:07:40;;;;;;;1.60;1.50;;;5.70;99.90;;;;;;5032677;28;20464;-58
2022/11/20 11:10:16;;;;;;;2.70;1.30;;;5.70;99.90;;;;;;5041254;28;20444;-54
2022/11/20 11:12:49;;;;;;;1.63;1.20;;;5.70;99.90;;;;;;5036230;28;21103;-55
2022/11/20 11:15:27;;;;;;;2.33;1.37;;;5.60;99.90;;;;;;5056599;28;20524;-60
2022/11/20 11:17:53;;;;;;;1.27;1.17;;;5.60;99.90;;;;;;5035159;28;20931;-55
2022/11/20 11:20:24;;;;;;;3.80;2.00;;;5.60;99.90;;;;;;5050942;28;20465;-55
2022/11/20 11:22:58;;;;;;;2.50;1.60;;;5.60;99.90;;;;;;5050693;28;20533;-58
2022/11/20 11:25:33;;;;;;;1.63;1.53;;;5.70;99.90;;;;;;5054674;28;20493;-56
2022/11/20 11:28:17;;;;;;;1.50;1.40;;;5.70;99.90;;;;;;5057923;28;20520;-54
2022/11/20 11:30:44;;;;;;;1.77;1.37;;;5.70;99.90;;;;;;5059664;28;20433;-54
2022/11/20 11:33:23;;;;;;;1.20;1.10;;;5.70;99.90;;;;;;5055917;28;20955;-55
2022/11/20 11:35:58;;;;;;;2.70;2.10;;;5.70;99.90;;;;;;5057538;28;20445;-54
2022/11/20 11:38:42;;;;;;;2.10;1.87;;;5.70;99.90;;;;;;5051126;28;20457;-55
2022/11/20 11:41:18;;;;;;;2.07;1.87;;;5.80;99.90;;;;;;5049096;28;20437;-54
2022/11/20 11:46:49;;;;;;;1.60;1.50;;;5.90;99.90;;;;;;5050714;28;20437;-53
2022/11/20 11:49:17;;;;;;;1.40;1.30;;;6.00;99.90;;;;;;5039322;28;20471;-54
2022/11/20 11:51:59;;;;;;;1.50;1.40;;;6.10;99.90;;;;;;5026704;28;20518;-53
2022/11/20 11:54:47;;;;;;;1.80;1.40;;;6.20;99.90;;;;;;5026250;28;21023;-54
2022/11/20 11:57:33;;;;;;;1.47;1.37;;;6.20;99.90;;;;;;5043692;28;20449;-53
2022/11/20 12:00:25;;;;;;;1.20;1.10;;;6.40;99.90;;;;;;5041291;28;20621;-57
2022/11/20 12:03:03;;;;;;;1.77;1.67;;;6.60;99.90;;;;;;5045040;28;20503;-56
2022/11/20 12:05:30;;;;;;;1.53;1.37;;;6.80;99.90;;;;;;5034768;28;20527;-57
2022/11/20 12:08:29;;;;;;;1.37;1.27;;;6.90;99.90;;;;;;5036744;28;20465;-57
2022/11/20 12:11:09;;;;;;;1.57;1.23;;;6.80;99.90;;;;;;5037833;28;20445;-56
2022/11/20 12:13:53;;;;;;;1.40;1.30;;;6.80;99.90;;;;;;5037309;28;20432;-56
2022/11/20 12:16:20;;;;;;;7.40;2.30;;;6.70;99.90;;;;;;5047507;28;20814;-57
2022/11/20 12:18:49;;;;;;;1.63;1.53;;;6.60;99.90;;;;;;5042020;28;20544;-57
2022/11/20 12:21:22;;;;;;;1.37;1.27;;;6.60;99.90;;;;;;5046240;28;20552;-57
2022/11/20 12:24:18;;;;;;;1.60;1.50;;;6.50;99.90;;;;;;5040743;28;20959;-57
2022/11/20 12:26:55;;;;;;;1.30;1.20;;;6.50;99.90;;;;;;5037106;28;20445;-57
2022/11/20 12:29:42;;;;;;;4.10;1.33;;;6.60;99.90;;;;;;5049212;28;20421;-57
2022/11/20 12:32:45;;;;;;;3.60;1.47;;;6.60;99.90;;;;;;5045877;28;20453;-57
2022/11/20 12:35:28;;;;;;;1.63;1.53;;;6.70;99.90;;;;;;5043505;28;20610;-58
2022/11/20 12:38:00;;;;;;;3.30;2.00;;;6.80;99.90;;;;;;5043376;28;20453;-56
2022/11/20 12:40:35;;;;;;;1.47;1.30;;;6.90;99.90;;;;;;5047924;28;20635;-56
2022/11/20 12:46:09;;;;;;;1.63;1.53;;;7.10;99.90;;;;;;5039987;28;20420;-57
2022/11/20 12:48:52;;;;;;;2.07;1.50;;;7.20;99.90;;;;;;5024065;28;20528;-59
2022/11/20 12:51:33;;;;;;;1.33;1.20;;;7.20;99.90;;;;;;5035895;28;20429;-57
2022/11/20 12:54:29;;;;;;;2.03;1.37;;;7.30;99.90;;;;;;5044515;28;20525;-56
2022/11/20 12:57:10;;;;;;;1.30;1.20;;;7.40;99.90;;;;;;5037779;28;20457;-58
2022/11/20 12:59:54;;;;;;;1.57;1.47;;;7.40;99.90;;;;;;5042135;28;20457;-57
2022/11/20 13:02:42;;;;;;;1.60;1.50;;;7.40;99.50;;;;;;5029089;28;20456;-57
2022/11/20 13:05:08;;;;;;;1.60;1.50;;;7.20;97.30;;;;;;5035601;28;20528;-53
2022/11/20 13:07:36;;;;;;;1.80;1.70;;;7.10;99.90;;;;;;5030313;28;20909;-52
2022/11/20 13:10:03;;;;;;;2.80;1.80;;;7.10;99.90;;;;;;5041294;28;20186;-55
2022/11/20 13:12:44;;;;;;;2.70;2.00;;;7.00;99.90;;;;;;5047514;28;20433;-54
2022/11/20 13:15:22;;;;;;;3.63;2.47;;;7.00;99.90;;;;;;5055646;28;20811;-54
2022/11/20 13:17:53;;;;;;;1.87;1.63;;;6.90;99.90;;;;;;5034728;28;20536;-53
2022/11/20 13:20:19;;;;;;;1.57;1.37;;;6.80;99.90;;;;;;5039134;28;21027;-54
2022/11/20 13:22:48;;;;;;;1.87;1.63;;;6.70;99.90;;;;;;5040860;28;20429;-54
2022/11/20 13:25:30;;;;;;;3.37;1.73;;;6.60;99.90;;;;;;5044740;28;20434;-53